createdAt,value
2017-11-07T00:01:45.001Z,48.40
2017-11-07T00:04:13.073Z,48.10
2017-11-07T00:06:41.157Z,47.80
2017-11-07T00:09:09.241Z,47.50
2017-11-07T00:11:37.340Z,47.40
2017-11-07T00:14:05.414Z,48.00
2017-11-07T00:16:33.488Z,47.40
2017-11-07T00:19:01.604Z,47.40
2017-11-07T00:21:29.680Z,47.40
2017-11-07T00:23:57.764Z,47.40
2017-11-07T00:26:25.836Z,47.40
2017-11-07T00:28:53.919Z,47.30
2017-11-07T00:31:21.996Z,47.40
2017-11-07T00:33:50.091Z,47.40
2017-11-07T00:36:18.172Z,47.40
2017-11-07T00:38:46.262Z,47.40
2017-11-07T00:41:14.555Z,47.40
2017-11-07T00:43:42.636Z,47.40
2017-11-07T00:46:10.740Z,47.40
2017-11-07T00:48:39.582Z,47.40
2017-11-07T00:51:08.428Z,47.40
2017-11-07T00:53:37.281Z,47.40
2017-11-07T00:56:05.392Z,47.30
2017-11-07T00:58:34.255Z,47.40
2017-11-07T01:01:02.344Z,47.30
2017-11-07T01:03:30.420Z,47.30
2017-11-07T01:05:59.264Z,47.30
2017-11-07T01:08:27.379Z,47.20
2017-11-07T01:10:55.448Z,47.40
2017-11-07T01:13:23.532Z,47.40
2017-11-07T01:15:52.389Z,47.40
2017-11-07T01:18:20.479Z,47.30
2017-11-07T01:20:48.552Z,47.40
2017-11-07T01:23:16.652Z,47.30
2017-11-07T01:25:45.498Z,47.30
2017-11-07T01:28:13.591Z,47.20
2017-11-07T01:30:41.671Z,47.30
2017-11-07T01:33:09.747Z,47.30
2017-11-07T01:35:38.608Z,47.80
2017-11-07T01:38:06.686Z,47.90
2017-11-07T01:40:34.772Z,48.10
2017-11-07T01:43:02.852Z,48.40
2017-11-07T01:45:30.940Z,48.50
2017-11-07T01:47:59.780Z,48.20
2017-11-07T01:50:27.884Z,48.10
2017-11-07T01:52:55.965Z,48.20
2017-11-07T01:55:24.037Z,48.40
2017-11-07T01:57:52.119Z,48.20
2017-11-07T02:00:20.200Z,48.30
2017-11-07T02:02:49.040Z,48.50
2017-11-07T02:05:17.458Z,48.50
2017-11-07T02:07:46.305Z,49.40
2017-11-07T02:10:14.389Z,48.60
2017-11-07T02:12:42.487Z,48.50
2017-11-07T02:15:10.563Z,48.60
2017-11-07T02:17:39.442Z,49.20
2017-11-07T02:20:07.525Z,49.10
2017-11-07T02:22:35.596Z,49.80
2017-11-07T02:25:03.672Z,50.00
2017-11-07T02:27:32.510Z,49.60
2017-11-07T02:30:01.361Z,49.90
2017-11-07T02:32:30.212Z,49.70
2017-11-07T02:34:58.292Z,49.70
2017-11-07T02:37:26.403Z,49.80
2017-11-07T02:39:55.247Z,49.40
2017-11-07T02:42:23.325Z,49.30
2017-11-07T02:44:51.413Z,49.10
2017-11-07T02:47:19.555Z,49.00
2017-11-07T02:49:48.430Z,48.30
2017-11-07T02:52:17.267Z,48.40
2017-11-07T02:54:45.343Z,48.40
2017-11-07T02:57:13.431Z,48.10
2017-11-07T02:59:42.352Z,47.60
2017-11-07T03:02:10.440Z,47.60
2017-11-07T03:04:39.499Z,48.50
2017-11-07T03:07:08.364Z,48.70
2017-11-07T03:09:36.437Z,48.70
2017-11-07T03:12:04.528Z,49.10
2017-11-07T03:14:33.372Z,49.00
2017-11-07T03:17:01.462Z,49.00
2017-11-07T03:19:29.534Z,49.10
2017-11-07T03:21:57.642Z,49.40
2017-11-07T03:24:26.475Z,49.70
2017-11-07T03:26:54.552Z,49.60
2017-11-07T03:29:22.635Z,49.70
2017-11-07T03:31:50.716Z,49.90
2017-11-07T03:34:18.795Z,50.10
2017-11-07T03:36:46.876Z,50.30
2017-11-07T03:39:14.955Z,50.10
2017-11-07T03:41:43.024Z,50.20
2017-11-07T03:44:11.109Z,49.80
2017-11-07T03:46:39.956Z,49.80
2017-11-07T03:49:08.040Z,49.70
2017-11-07T03:51:36.116Z,49.50
2017-11-07T03:54:04.195Z,49.60
2017-11-07T03:56:32.280Z,49.50
2017-11-07T03:59:00.405Z,49.00
2017-11-07T04:01:28.476Z,48.50
2017-11-07T04:03:57.316Z,47.60
2017-11-07T04:06:25.400Z,47.60
2017-11-07T04:08:54.253Z,47.70
2017-11-07T04:11:22.341Z,47.70
2017-11-07T04:13:50.452Z,47.70
2017-11-07T04:16:18.600Z,47.60
2017-11-07T04:18:46.681Z,47.60
2017-11-07T04:21:14.765Z,47.70
2017-11-07T04:23:43.616Z,48.40
2017-11-07T04:26:12.416Z,47.60
2017-11-07T04:28:40.492Z,47.70
2017-11-07T04:31:08.573Z,47.30
2017-11-07T04:33:37.440Z,47.10
2017-11-07T04:36:05.516Z,47.00
2017-11-07T04:38:33.655Z,47.10
2017-11-07T04:41:01.800Z,46.80
2017-11-07T04:43:29.968Z,47.00
2017-11-07T04:45:58.815Z,45.80
2017-11-07T04:48:26.924Z,45.70
2017-11-07T04:50:55.774Z,45.70
2017-11-07T04:53:23.872Z,45.60
2017-11-07T04:55:52.093Z,46.20
2017-11-07T04:58:20.163Z,46.70
2017-11-07T05:00:48.258Z,46.40
2017-11-07T05:03:17.100Z,46.40
2017-11-07T05:05:45.176Z,46.40
2017-11-07T05:08:13.259Z,47.00
2017-11-07T05:10:41.351Z,46.90
2017-11-07T05:13:09.423Z,47.00
2017-11-07T05:15:37.516Z,47.80
2017-11-07T05:18:05.596Z,47.80
2017-11-07T05:20:33.712Z,47.80
2017-11-07T05:23:02.602Z,46.40
2017-11-07T05:25:31.448Z,46.40
2017-11-07T05:27:59.544Z,46.20
2017-11-07T05:30:27.623Z,46.00
2017-11-07T05:32:55.698Z,45.70
2017-11-07T05:35:23.780Z,45.90
2017-11-07T05:37:51.865Z,45.70
2017-11-07T05:40:20.717Z,45.30
2017-11-07T05:42:48.804Z,45.20
2017-11-07T05:45:16.883Z,45.70
2017-11-07T05:47:44.973Z,46.00
2017-11-07T05:50:13.820Z,45.70
2017-11-07T05:52:41.903Z,45.60
2017-11-07T05:55:09.989Z,46.00
2017-11-07T05:57:38.067Z,46.30
2017-11-07T06:00:06.152Z,45.90
2017-11-07T06:02:34.993Z,45.60
2017-11-07T06:05:03.082Z,45.60
2017-11-07T06:07:31.372Z,46.00
2017-11-07T06:09:59.460Z,46.40
2017-11-07T06:12:27.527Z,47.10
2017-11-07T06:14:55.613Z,47.20
2017-11-07T06:17:24.464Z,47.70
2017-11-07T06:19:52.553Z,47.60
2017-11-07T06:22:20.637Z,47.40
2017-11-07T06:24:48.716Z,47.10
2017-11-07T06:27:17.589Z,47.20
2017-11-07T06:29:45.688Z,47.10
2017-11-07T06:32:14.529Z,47.30
2017-11-07T06:34:42.607Z,47.10
2017-11-07T06:37:10.704Z,46.80
2017-11-07T06:39:38.783Z,47.30
2017-11-07T06:42:06.864Z,46.90
2017-11-07T06:44:34.952Z,46.80
2017-11-07T06:47:03.797Z,46.50
2017-11-07T06:49:31.900Z,46.40
2017-11-07T06:52:00.757Z,46.70
2017-11-07T06:54:28.854Z,46.60
2017-11-07T06:56:56.990Z,47.30
2017-11-07T06:59:25.060Z,47.10
2017-11-07T07:01:53.149Z,47.00
2017-11-07T07:04:21.237Z,47.30
2017-11-07T07:06:50.117Z,47.80
2017-11-07T07:09:18.224Z,47.70
2017-11-07T07:11:47.077Z,47.80
2017-11-07T07:14:15.148Z,47.70
2017-11-07T07:16:43.245Z,47.70
2017-11-07T07:19:11.310Z,47.80
2017-11-07T07:21:39.393Z,47.90
2017-11-07T07:24:07.486Z,47.80
2017-11-07T07:26:36.315Z,47.80
2017-11-07T07:29:05.156Z,47.50
2017-11-07T07:31:34.000Z,47.50
2017-11-07T07:34:02.082Z,47.30
2017-11-07T07:36:30.155Z,47.20
2017-11-07T07:38:58.256Z,47.20
2017-11-07T07:41:26.319Z,46.80
2017-11-07T07:43:54.403Z,46.80
2017-11-07T07:46:23.243Z,47.40
2017-11-07T07:48:52.083Z,47.20
2017-11-07T07:51:20.924Z,46.90
2017-11-07T07:53:49.015Z,47.60
2017-11-07T07:56:17.112Z,46.90
2017-11-07T07:58:45.193Z,46.50
2017-11-07T08:01:14.040Z,46.10
2017-11-07T08:03:42.124Z,46.10
2017-11-07T08:06:10.200Z,45.70
2017-11-07T08:08:38.288Z,46.10
2017-11-07T08:11:06.376Z,44.90
2017-11-07T08:13:35.226Z,45.00
2017-11-07T08:16:03.312Z,44.80
2017-11-07T08:18:31.396Z,44.70
2017-11-07T08:20:59.494Z,44.90
2017-11-07T08:23:27.576Z,44.10
2017-11-07T08:25:55.670Z,44.20
2017-11-07T08:28:24.506Z,44.60
2017-11-07T08:30:52.599Z,44.50
2017-11-07T08:33:21.456Z,44.60
2017-11-07T08:35:49.549Z,44.50
2017-11-07T08:38:18.419Z,43.50
2017-11-07T08:40:46.562Z,43.90
2017-11-07T08:43:15.399Z,44.40
2017-11-07T08:45:43.486Z,44.30
2017-11-07T08:48:12.337Z,44.40
2017-11-07T08:50:40.430Z,44.30
2017-11-07T08:53:08.509Z,44.30
2017-11-07T08:55:36.603Z,44.60
2017-11-07T08:58:05.455Z,44.00
2017-11-07T09:00:33.532Z,43.90
2017-11-07T09:03:01.621Z,44.20
2017-11-07T09:05:29.699Z,44.20
2017-11-07T09:07:57.785Z,43.90
2017-11-07T09:10:26.636Z,43.80
2017-11-07T09:12:54.718Z,43.80
2017-11-07T09:15:22.798Z,44.00
2017-11-07T09:17:50.884Z,43.90
2017-11-07T09:20:19.725Z,43.60
2017-11-07T09:22:47.808Z,43.30
2017-11-07T09:25:15.908Z,43.50
2017-11-07T09:27:44.012Z,43.50
2017-11-07T09:30:12.087Z,43.50
2017-11-07T09:32:40.168Z,43.10
2017-11-07T09:35:08.279Z,43.20
2017-11-07T09:37:36.358Z,43.30
2017-11-07T09:40:04.456Z,43.30
2017-11-07T09:42:32.532Z,43.00
2017-11-07T09:45:01.395Z,43.30
2017-11-07T09:47:29.482Z,43.20
2017-11-07T09:49:57.570Z,42.80
2017-11-07T09:52:26.415Z,42.40
2017-11-07T09:54:54.542Z,42.20
2017-11-07T09:57:22.628Z,42.60
2017-11-07T09:59:50.718Z,42.70
2017-11-07T10:02:18.799Z,42.50
2017-11-07T10:04:47.651Z,42.50
2017-11-07T10:07:16.508Z,42.30
2017-11-07T10:09:44.600Z,42.20
2017-11-07T10:12:12.672Z,42.20
2017-11-07T10:14:40.751Z,42.00
2017-11-07T10:17:09.591Z,42.80
2017-11-07T10:19:37.683Z,42.20
2017-11-07T10:22:05.776Z,42.20
2017-11-07T10:24:33.841Z,42.20
2017-11-07T10:27:01.932Z,41.80
2017-11-07T10:29:30.004Z,42.20
2017-11-07T10:31:58.092Z,41.70
2017-11-07T10:34:26.940Z,41.70
2017-11-07T10:36:55.032Z,41.60
2017-11-07T10:39:23.116Z,41.80
2017-11-07T10:41:51.971Z,41.30
2017-11-07T10:44:20.045Z,41.40
2017-11-07T10:46:48.135Z,41.70
2017-11-07T10:49:16.215Z,41.70
2017-11-07T10:51:44.296Z,41.80
2017-11-07T10:54:13.168Z,42.20
2017-11-07T10:56:41.251Z,42.20
2017-11-07T10:59:09.332Z,41.80
2017-11-07T11:01:38.189Z,41.70
2017-11-07T11:04:06.273Z,41.60
2017-11-07T11:06:34.428Z,41.00
2017-11-07T11:09:02.516Z,42.00
2017-11-07T11:11:30.608Z,41.70
2017-11-07T11:13:59.061Z,41.20
2017-11-07T11:16:27.141Z,41.50
2017-11-07T11:18:55.207Z,41.60
2017-11-07T11:21:23.297Z,41.00
2017-11-07T11:23:51.381Z,40.70
2017-11-07T11:26:19.459Z,40.90
2017-11-07T11:28:48.309Z,40.70
2017-11-07T11:31:16.408Z,40.60
2017-11-07T11:33:44.491Z,40.70
2017-11-07T11:36:12.584Z,40.70
2017-11-07T11:38:41.441Z,40.70
2017-11-07T11:41:09.513Z,40.60
2017-11-07T11:43:37.588Z,40.70
2017-11-07T11:46:05.679Z,40.70
2017-11-07T11:48:34.523Z,40.90
2017-11-07T11:51:02.654Z,40.90
2017-11-07T11:53:30.732Z,40.70
2017-11-07T11:55:59.608Z,41.10
2017-11-07T11:58:28.465Z,40.80
2017-11-07T12:00:56.552Z,40.80
2017-11-07T12:03:24.636Z,41.50
2017-11-07T12:05:52.721Z,40.80
2017-11-07T12:08:21.572Z,40.90
2017-11-07T12:10:49.663Z,41.40
2017-11-07T12:13:17.749Z,40.80
2017-11-07T12:15:45.832Z,40.80
2017-11-07T12:18:14.684Z,41.00
2017-11-07T12:20:42.768Z,40.80
2017-11-07T12:23:10.844Z,40.80
2017-11-07T12:25:38.927Z,40.90
2017-11-07T12:28:07.008Z,40.90
2017-11-07T12:30:35.865Z,39.80
2017-11-07T12:33:03.942Z,39.80
2017-11-07T12:35:32.032Z,39.70
2017-11-07T12:38:00.116Z,39.60
2017-11-07T12:40:28.206Z,40.40
2017-11-07T12:42:57.043Z,39.40
2017-11-07T12:45:25.136Z,39.20
2017-11-07T12:47:53.225Z,39.50
2017-11-07T12:50:39.771Z,38.20
2017-11-07T12:53:07.857Z,38.10
2017-11-07T12:55:35.948Z,37.80
2017-11-07T12:58:04.058Z,35.40
2017-11-07T13:00:32.996Z,38.50
2017-11-07T13:03:01.089Z,38.50
2017-11-07T13:05:29.181Z,37.70
2017-11-07T13:07:57.264Z,38.30
2017-11-07T13:10:25.363Z,37.60
2017-11-07T13:12:53.461Z,36.30
2017-11-07T13:15:21.548Z,36.20
2017-11-07T13:17:49.637Z,33.40
2017-11-07T13:20:17.724Z,33.60
2017-11-07T13:22:46.594Z,34.30
2017-11-07T13:25:14.670Z,34.30
2017-11-07T13:27:42.760Z,32.60
2017-11-07T13:30:12.489Z,33.40
2017-11-07T13:32:41.371Z,34.30
2017-11-07T13:35:10.220Z,32.60
2017-11-07T13:37:38.816Z,32.50
2017-11-07T13:40:06.904Z,31.40
2017-11-07T13:42:35.011Z,32.80
2017-11-07T13:45:03.104Z,32.50
2017-11-07T13:47:31.184Z,33.90
2017-11-07T13:49:59.332Z,32.70
2017-11-07T13:52:27.422Z,34.40
2017-11-07T13:54:55.513Z,34.10
2017-11-07T13:57:23.589Z,34.40
2017-11-07T13:59:51.823Z,35.10
2017-11-07T14:02:19.900Z,35.20
2017-11-07T14:04:48.007Z,35.50
2017-11-07T14:07:16.123Z,36.70
2017-11-07T14:09:44.188Z,36.10
2017-11-07T14:12:13.049Z,36.00
2017-11-07T14:14:41.119Z,35.90
2017-11-07T14:17:09.213Z,36.20
2017-11-07T14:19:37.279Z,36.50
2017-11-07T14:22:05.375Z,34.20
2017-11-07T14:24:35.828Z,34.20
2017-11-07T14:27:03.920Z,34.10
2017-11-07T14:29:31.999Z,33.70
2017-11-07T14:32:00.083Z,33.30
2017-11-07T14:34:28.164Z,32.70
2017-11-07T14:36:56.358Z,32.70
2017-11-07T14:39:24.460Z,32.10
2017-11-07T14:41:52.547Z,32.00
2017-11-07T14:44:20.648Z,32.90
2017-11-07T14:46:48.747Z,32.00
2017-11-07T14:49:16.825Z,31.70
2017-11-07T14:51:44.904Z,32.00
2017-11-07T14:54:13.752Z,32.10
2017-11-07T14:56:41.834Z,32.00
2017-11-07T14:59:09.924Z,32.00
2017-11-07T15:01:38.102Z,32.00
2017-11-07T15:04:06.176Z,31.90
2017-11-07T15:06:34.281Z,32.00
2017-11-07T15:09:02.351Z,32.00
2017-11-07T15:11:30.449Z,32.00
2017-11-07T15:13:59.289Z,32.00
2017-11-07T15:16:27.372Z,32.00
2017-11-07T15:18:56.210Z,32.00
2017-11-07T15:21:24.300Z,32.00
2017-11-07T15:23:52.367Z,32.00
2017-11-07T15:26:20.467Z,32.00
2017-11-07T15:28:48.543Z,32.20
2017-11-07T15:31:16.624Z,32.00
2017-11-07T15:33:45.479Z,32.50
2017-11-07T15:36:13.555Z,32.50
2017-11-07T15:38:41.652Z,32.00
2017-11-07T15:41:09.712Z,33.60
2017-11-07T15:43:37.801Z,33.00
2017-11-07T15:46:05.920Z,32.60
2017-11-07T15:48:34.763Z,34.00
2017-11-07T15:51:02.845Z,33.90
2017-11-07T15:53:31.705Z,34.60
2017-11-07T15:55:59.789Z,34.50
2017-11-07T15:58:27.868Z,34.50
2017-11-07T16:00:55.945Z,34.60
2017-11-07T16:03:24.024Z,38.20
2017-11-07T16:05:52.864Z,35.90
2017-11-07T16:08:20.949Z,35.90
2017-11-07T16:10:49.019Z,35.60
2017-11-07T16:13:17.113Z,36.50
2017-11-07T16:15:45.198Z,39.50
2017-11-07T16:18:13.284Z,36.20
2017-11-07T16:20:42.133Z,36.50
2017-11-07T16:23:10.219Z,36.50
2017-11-07T16:25:38.290Z,37.20
2017-11-07T16:28:06.588Z,36.60
2017-11-07T16:30:34.662Z,36.40
2017-11-07T16:33:03.515Z,37.50
2017-11-07T16:35:32.549Z,37.50
2017-11-07T16:38:01.407Z,36.60
2017-11-07T16:40:29.474Z,36.50
2017-11-07T16:42:57.563Z,36.90
2017-11-07T16:45:25.648Z,37.20
2017-11-07T16:47:53.728Z,37.70
2017-11-07T16:50:22.566Z,37.00
2017-11-07T16:52:50.673Z,37.00
2017-11-07T16:55:18.748Z,36.70
2017-11-07T16:57:46.832Z,36.80
2017-11-07T17:00:15.675Z,37.70
2017-11-07T17:02:44.516Z,37.00
2017-11-07T17:05:13.365Z,37.10
2017-11-07T17:07:41.447Z,37.10
2017-11-07T17:10:09.519Z,36.20
2017-11-07T17:12:37.617Z,36.60
2017-11-07T17:15:05.696Z,37.30
2017-11-07T17:17:34.544Z,34.80
2017-11-07T17:20:02.629Z,34.40
2017-11-07T17:22:30.720Z,35.20
2017-11-07T17:24:58.787Z,33.90
2017-11-07T17:27:26.876Z,34.70
2017-11-07T17:29:55.716Z,36.50
2017-11-07T17:32:23.796Z,35.80
2017-11-07T17:34:51.886Z,36.20
2017-11-07T17:37:19.971Z,37.20
2017-11-07T17:39:48.055Z,37.60
2017-11-07T17:42:16.132Z,37.80
2017-11-07T17:44:44.980Z,38.30
2017-11-07T17:47:13.059Z,38.30
2017-11-07T17:49:41.141Z,38.40
2017-11-07T17:52:09.223Z,38.60
2017-11-07T17:54:37.302Z,39.70
2017-11-07T17:57:05.385Z,40.50
2017-11-07T17:59:33.451Z,38.80
2017-11-07T18:02:01.536Z,39.60
2017-11-07T18:04:30.376Z,39.40
2017-11-07T18:06:58.460Z,39.40
2017-11-07T18:09:26.531Z,40.10
2017-11-07T18:11:54.614Z,40.20
2017-11-07T18:14:22.701Z,40.20
2017-11-07T18:16:50.857Z,40.20
2017-11-07T18:19:18.951Z,40.20
2017-11-07T18:21:47.024Z,40.10
2017-11-07T18:24:15.103Z,40.10
2017-11-07T18:26:43.176Z,40.10
2017-11-07T18:29:11.248Z,40.00
2017-11-07T18:31:40.087Z,40.60
2017-11-07T18:34:08.938Z,40.20
2017-11-07T18:36:37.783Z,40.90
2017-11-07T18:39:05.864Z,40.90
2017-11-07T18:41:33.935Z,41.30
2017-11-07T18:44:02.020Z,41.40
2017-11-07T18:46:30.100Z,41.80
2017-11-07T18:48:58.184Z,41.90
2017-11-07T18:51:27.031Z,42.90
2017-11-07T18:53:55.112Z,42.80
2017-11-07T18:56:23.190Z,43.30
2017-11-07T18:58:51.262Z,43.90
2017-11-07T19:01:19.334Z,43.70
2017-11-07T19:03:47.416Z,44.10
2017-11-07T19:06:15.489Z,44.10
2017-11-07T19:08:43.568Z,44.10
2017-11-07T19:11:11.637Z,44.70
2017-11-07T19:13:39.721Z,44.20
2017-11-07T19:16:07.792Z,44.10
2017-11-07T19:18:35.869Z,45.10
2017-11-07T19:21:03.939Z,44.60
2017-11-07T19:23:32.015Z,45.00
2017-11-07T19:26:00.887Z,45.30
2017-11-07T19:28:28.978Z,45.40
2017-11-07T19:30:57.043Z,45.60
2017-11-07T19:33:25.119Z,45.90
2017-11-07T19:35:53.194Z,45.60
2017-11-07T19:38:21.302Z,45.50
2017-11-07T19:40:50.107Z,46.20
2017-11-07T19:43:18.198Z,46.10
2017-11-07T19:45:47.196Z,46.30
2017-11-07T19:48:15.344Z,46.60
2017-11-07T19:50:44.172Z,46.80
2017-11-07T19:53:12.259Z,46.80
2017-11-07T19:55:40.332Z,46.80
2017-11-07T19:58:08.412Z,46.70
2017-11-07T20:00:37.260Z,46.90
2017-11-07T20:03:05.349Z,46.80
2017-11-07T20:05:33.428Z,47.50
2017-11-07T20:08:01.512Z,48.70
2017-11-07T20:10:29.584Z,48.00
2017-11-07T20:12:57.665Z,48.00
2017-11-07T20:15:26.508Z,48.00
2017-11-07T20:17:54.600Z,47.90
2017-11-07T20:20:22.662Z,47.90
2017-11-07T20:22:50.756Z,48.60
2017-11-07T20:25:18.828Z,49.00
2017-11-07T20:27:46.921Z,49.00
2017-11-07T20:30:15.771Z,49.20
2017-11-07T20:32:43.868Z,49.10
2017-11-07T20:35:11.951Z,49.30
2017-11-07T20:37:40.809Z,49.80
2017-11-07T20:40:08.895Z,49.20
2017-11-07T20:42:36.972Z,49.30
2017-11-07T20:45:05.057Z,49.20
2017-11-07T20:47:33.901Z,49.70
2017-11-07T20:50:01.995Z,48.90
2017-11-07T20:52:30.399Z,49.00
2017-11-07T20:54:58.481Z,49.00
2017-11-07T20:57:27.332Z,49.50
2017-11-07T20:59:55.423Z,49.50
2017-11-07T21:02:23.499Z,49.80
2017-11-07T21:04:51.605Z,49.50
2017-11-07T21:07:20.445Z,49.70
2017-11-07T21:09:48.535Z,49.60
2017-11-07T21:12:16.616Z,49.80
2017-11-07T21:14:44.686Z,50.10
2017-11-07T21:17:13.534Z,49.90
2017-11-07T21:19:42.387Z,49.80
2017-11-07T21:22:11.231Z,49.60
2017-11-07T21:24:39.323Z,49.60
2017-11-07T21:29:41.996Z,50.10
2017-11-07T21:32:10.175Z,50.00
2017-11-07T21:34:39.098Z,50.30
2017-11-07T21:37:07.967Z,50.30
2017-11-07T21:39:36.064Z,50.10
2017-11-07T21:42:17.214Z,50.10
2017-11-07T21:44:45.321Z,50.00
2017-11-07T21:47:14.172Z,50.20
2017-11-07T21:49:42.279Z,50.20
2017-11-07T21:52:10.368Z,50.30
2017-11-07T21:54:39.249Z,50.20
2017-11-07T21:57:07.321Z,50.20
2017-11-07T21:59:36.175Z,50.70
2017-11-07T22:02:04.260Z,50.70
2017-11-07T22:04:32.362Z,50.60
2017-11-07T22:07:01.222Z,50.60
2017-11-07T22:09:29.309Z,50.60
2017-11-07T22:11:57.389Z,50.90
2017-11-07T22:14:25.481Z,51.30
2017-11-07T22:16:54.331Z,51.30
2017-11-07T22:19:22.416Z,51.30
2017-11-07T22:21:50.509Z,51.40
2017-11-07T22:24:19.395Z,51.40
2017-11-07T22:26:51.205Z,51.40
2017-11-07T22:29:19.296Z,51.30
2017-11-07T22:31:47.384Z,51.20
2017-11-07T22:34:15.469Z,51.20
2017-11-07T22:36:43.567Z,51.30
2017-11-07T22:39:11.657Z,51.50
2017-11-07T22:41:39.965Z,51.80
2017-11-07T22:44:08.037Z,51.30
2017-11-07T22:46:36.129Z,51.00
2017-11-07T22:49:04.216Z,50.90
2017-11-07T22:51:33.079Z,50.60
2017-11-07T22:54:01.169Z,50.50
2017-11-07T22:56:29.257Z,50.30
2017-11-07T22:58:58.123Z,50.50
2017-11-07T23:01:26.222Z,50.50
2017-11-07T23:03:55.072Z,50.90
2017-11-07T23:06:23.160Z,50.80
2017-11-07T23:08:51.280Z,50.70
2017-11-07T23:11:19.397Z,50.80
2017-11-07T23:13:47.488Z,50.20
2017-11-07T23:16:15.555Z,50.60
2017-11-07T23:18:43.654Z,50.80
2017-11-07T23:21:12.520Z,50.70
2017-11-07T23:23:40.624Z,50.70
2017-11-07T23:26:09.597Z,50.50
2017-11-07T23:28:37.685Z,50.60
2017-11-07T23:31:06.538Z,50.50
2017-11-07T23:33:34.624Z,50.40
2017-11-07T23:36:02.713Z,50.30
2017-11-07T23:38:30.781Z,50.60
2017-11-07T23:40:59.639Z,50.70
2017-11-07T23:43:27.735Z,50.60
2017-11-07T23:45:55.820Z,50.70
2017-11-07T23:48:23.893Z,51.00
2017-11-07T23:50:52.783Z,51.10
2017-11-07T23:53:20.861Z,51.10
2017-11-07T23:55:49.702Z,51.50
2017-11-07T23:58:17.804Z,51.40
